Aurora, North Carolina
Current Conditions -  °F | °C
As of 7:36 PM on Monday 24 Nov 2014 (Local Time) from KEWN Reporting Station
Broken Clouds Broken Clouds  
Wind Chill: 72°   Ceiling: 3900
Heat Index: 72°   Visibility: 9mi
Dew Point: 68°   Wind: 7mph
Humidity: 87%   Direction: 210°SSW
Pressure: 29.92"   Gusts: NA
Location:  35.31°N, 76.79°W
Report Text: KEWN 250036Z 21006KT 9SM SCT009 BKN039 BKN060 22/20 A2992 RMK AO2 T02220200
Loading
Personal Weather Stations






























Interactive Weather Map New forecast layout! Learn more

10-Day Weather Forecast

Advertisements
Track Severe Weather on mobile